Time;durP1;ratioP1;P1;durP2;ratioP2;P2;SDS_P1;SDS_P2;PMS_P1;PMS_P2;Temp;Humidity;BMP_temperature;BMP_pressure;BME280_temperature;BME280_humidity;BME280_pressure;Samples;Min_cycle;Max_cycle;Signal;HPM_P1;HPM_P2
2023/10/28 00:00:55;;;;;;;1.97;0.60;;;10.50;1.00;;;;;;5038194;28;20418;-38
2023/10/28 00:03:21;;;;;;;1.10;0.47;;;10.50;1.00;;;;;;5037800;28;20430;-37
2023/10/28 00:05:48;;;;;;;3.40;0.70;;;10.50;1.00;;;;;;5018666;28;20584;-39
2023/10/28 00:08:14;;;;;;;1.27;0.77;;;10.50;1.00;;;;;;5035308;28;20645;-37
2023/10/28 00:10:41;;;;;;;1.60;0.60;;;10.50;99.90;;;;;;5034287;28;20469;-38
2023/10/28 00:13:08;;;;;;;1.00;0.50;;;10.50;1.00;;;;;;5018496;28;20209;-38
2023/10/28 00:15:37;;;;;;;1.73;0.63;;;10.50;1.00;;;;;;5035413;28;20520;-38
2023/10/28 00:18:03;;;;;;;2.57;0.60;;;10.40;99.90;;;;;;5036036;28;20453;-37
2023/10/28 00:20:29;;;;;;;1.10;0.50;;;10.40;99.90;;;;;;5037706;28;20862;-38
2023/10/28 00:22:55;;;;;;;1.00;0.60;;;10.40;99.90;;;;;;5019100;28;20230;-39
2023/10/28 00:25:28;;;;;;;1.40;0.70;;;10.40;99.90;;;;;;5036480;28;20445;-38
2023/10/28 00:27:55;;;;;;;1.80;0.70;;;10.50;99.90;;;;;;5036701;28;20755;-38
2023/10/28 00:30:25;;;;;;;2.47;1.00;;;10.40;99.90;;;;;;5036235;28;20481;-37
2023/10/28 00:32:52;;;;;;;3.23;0.70;;;10.40;99.90;;;;;;5036756;28;20641;-37
2023/10/28 00:35:18;;;;;;;1.77;0.67;;;10.40;99.90;;;;;;5035917;28;20433;-37
2023/10/28 00:37:44;;;;;;;1.50;0.60;;;10.40;99.90;;;;;;5036378;28;20702;-38
2023/10/28 00:40:10;;;;;;;1.13;0.67;;;10.40;99.90;;;;;;5018307;28;20421;-37
2023/10/28 00:42:37;;;;;;;1.00;0.60;;;10.30;99.90;;;;;;5035945;28;20475;-38
2023/10/28 00:45:08;;;;;;;1.10;0.50;;;10.30;99.90;;;;;;5018026;28;20437;-39
2023/10/28 00:47:38;;;;;;;2.37;0.80;;;10.30;99.90;;;;;;5035579;28;20496;-38
2023/10/28 00:50:12;;;;;;;2.70;0.83;;;10.30;99.90;;;;;;5036305;28;20851;-38
2023/10/28 00:52:44;;;;;;;1.40;0.70;;;10.30;99.90;;;;;;5036916;28;20519;-37
2023/10/28 00:55:14;;;;;;;1.77;0.70;;;10.30;99.90;;;;;;5036290;28;20417;-38
2023/10/28 00:57:44;;;;;;;2.07;0.83;;;10.30;99.90;;;;;;5035365;28;20528;-37
2023/10/28 01:00:10;;;;;;;1.70;0.70;;;10.30;99.90;;;;;;5035264;28;20437;-41
2023/10/28 01:02:38;;;;;;;1.40;0.80;;;10.30;99.90;;;;;;5036371;28;20446;-38
2023/10/28 01:05:11;;;;;;;1.63;0.80;;;10.30;99.90;;;;;;5035027;28;20429;-39
2023/10/28 01:07:39;;;;;;;1.57;0.77;;;10.30;99.90;;;;;;5036539;28;20519;-39
2023/10/28 01:10:05;;;;;;;1.60;0.80;;;10.30;99.90;;;;;;5035760;28;20471;-39
2023/10/28 01:12:31;;;;;;;2.80;0.90;;;10.30;99.90;;;;;;5036420;28;20908;-38
2023/10/28 01:14:57;;;;;;;3.97;0.97;;;10.30;99.90;;;;;;5035788;28;20520;-40
2023/10/28 01:17:25;;;;;;;1.87;1.17;;;10.20;99.90;;;;;;5036450;28;20516;-38
2023/10/28 01:19:53;;;;;;;2.53;0.90;;;10.30;99.90;;;;;;5035758;28;20198;-37
2023/10/28 01:22:21;;;;;;;1.40;0.83;;;10.30;99.90;;;;;;5034012;28;20437;-40
2023/10/28 01:24:47;;;;;;;3.10;0.90;;;10.30;99.90;;;;;;5016271;28;20410;-39
2023/10/28 01:27:12;;;;;;;1.40;0.80;;;10.20;99.90;;;;;;5016628;28;20436;-38
2023/10/28 01:29:38;;;;;;;1.90;0.80;;;10.20;99.90;;;;;;5016805;28;20474;-38
2023/10/28 01:32:04;;;;;;;1.40;0.90;;;10.10;99.90;;;;;;5016327;28;20606;-46
2023/10/28 01:34:31;;;;;;;1.97;0.83;;;10.20;99.90;;;;;;5015393;28;20223;-39
2023/10/28 01:36:58;;;;;;;1.77;0.80;;;10.10;99.90;;;;;;4997609;28;20189;-38
2023/10/28 01:39:23;;;;;;;2.20;1.03;;;10.10;99.90;;;;;;5015898;28;20426;-38
2023/10/28 01:41:49;;;;;;;2.13;1.10;;;10.10;1.00;;;;;;4998257;28;20429;-38
2023/10/28 01:44:16;;;;;;;2.07;0.80;;;10.10;1.00;;;;;;5016377;28;20664;-38
2023/10/28 01:46:42;;;;;;;3.33;1.03;;;10.10;1.00;;;;;;5016678;28;20190;-37
2023/10/28 01:49:08;;;;;;;1.73;0.60;;;10.10;1.00;;;;;;5016330;28;20844;-38
2023/10/28 01:51:34;;;;;;;3.83;1.10;;;10.00;1.00;;;;;;5016321;28;20426;-38
2023/10/28 01:53:59;;;;;;;3.00;1.00;;;10.00;1.00;;;;;;5016331;28;20516;-37
2023/10/28 01:56:28;;;;;;;3.53;1.30;;;10.00;1.00;;;;;;5015961;28;20426;-38
2023/10/28 01:58:54;;;;;;;1.30;0.80;;;10.00;1.00;;;;;;5013958;28;20198;-38
2023/10/28 02:01:19;;;;;;;2.53;1.20;;;10.00;1.00;;;;;;5015919;28;20437;-39
2023/10/28 02:03:45;;;;;;;1.50;0.73;;;10.00;1.00;;;;;;5015229;28;20612;-39
2023/10/28 02:06:11;;;;;;;2.53;0.80;;;10.00;1.00;;;;;;5016425;28;20398;-38
2023/10/28 02:08:36;;;;;;;1.40;0.80;;;10.00;1.00;;;;;;5018990;28;20394;-37
2023/10/28 02:11:02;;;;;;;5.07;1.30;;;10.00;1.00;;;;;;5019149;28;20191;-38
2023/10/28 02:13:28;;;;;;;3.93;1.00;;;10.00;1.00;;;;;;5003006;28;20176;-41
2023/10/28 02:15:53;;;;;;;1.77;1.07;;;10.00;1.00;;;;;;5019400;28;20191;-41
2023/10/28 02:18:19;;;;;;;1.60;0.63;;;10.00;1.00;;;;;;5020012;28;20273;-38
2023/10/28 02:20:45;;;;;;;1.30;0.90;;;10.00;1.00;;;;;;5020738;28;20564;-38
2023/10/28 02:23:16;;;;;;;6.23;0.90;;;10.00;1.00;;;;;;5027783;28;20246;-39
2023/10/28 02:25:42;;;;;;;2.13;1.03;;;9.90;1.00;;;;;;5040338;28;20409;-37
2023/10/28 02:28:09;;;;;;;3.83;1.20;;;9.90;1.00;;;;;;5039415;28;20508;-38
2023/10/28 02:30:39;;;;;;;4.63;1.13;;;9.90;99.90;;;;;;5039095;28;20214;-37
2023/10/28 02:33:04;;;;;;;1.70;1.10;;;9.90;99.90;;;;;;5021495;28;20526;-37
2023/10/28 02:35:30;;;;;;;3.40;1.50;;;9.90;99.90;;;;;;5039675;28;20479;-37
2023/10/28 02:37:56;;;;;;;3.03;1.37;;;9.90;99.90;;;;;;5039166;28;20171;-40
2023/10/28 02:40:21;;;;;;;3.43;1.00;;;9.90;99.90;;;;;;5039598;28;20277;-34
2023/10/28 02:42:47;;;;;;;3.13;1.30;;;9.90;99.90;;;;;;5039664;28;20324;-37
2023/10/28 02:45:14;;;;;;;4.73;1.10;;;9.90;99.90;;;;;;5039550;28;20546;-39
2023/10/28 02:47:40;;;;;;;7.03;1.47;;;9.90;99.90;;;;;;5039396;28;20190;-37
2023/10/28 02:50:07;;;;;;;3.87;1.80;;;9.90;99.90;;;;;;5039563;28;20460;-37
2023/10/28 02:52:32;;;;;;;3.80;1.23;;;9.90;99.90;;;;;;5039299;28;20193;-37
2023/10/28 02:54:58;;;;;;;3.10;1.77;;;10.00;99.90;;;;;;5038093;28;20417;-36
2023/10/28 02:57:24;;;;;;;3.43;1.73;;;10.00;99.90;;;;;;5036761;28;20187;-40
2023/10/28 02:59:49;;;;;;;4.90;1.50;;;10.00;99.90;;;;;;5037313;28;20535;-36
2023/10/28 03:02:16;;;;;;;6.37;1.80;;;10.00;99.90;;;;;;5036784;28;20464;-37
2023/10/28 03:04:42;;;;;;;2.63;1.10;;;10.00;99.90;;;;;;5038288;28;20179;-38
2023/10/28 03:07:08;;;;;;;2.80;1.30;;;10.00;99.90;;;;;;5037665;28;20428;-36
2023/10/28 03:09:33;;;;;;;4.27;1.53;;;10.00;99.90;;;;;;5037435;28;20592;-39
2023/10/28 03:11:59;;;;;;;4.87;1.33;;;10.10;99.90;;;;;;5036815;28;20557;-37
2023/10/28 03:14:25;;;;;;;6.00;1.90;;;10.00;99.90;;;;;;5036901;28;20224;-45
2023/10/28 03:16:51;;;;;;;5.63;1.33;;;10.10;99.90;;;;;;5037207;28;20178;-45
2023/10/28 03:19:16;;;;;;;6.20;1.50;;;10.10;99.90;;;;;;5036037;28;20449;-45
2023/10/28 03:21:42;;;;;;;3.83;1.70;;;10.10;99.90;;;;;;5037113;28;20233;-45
2023/10/28 03:24:08;;;;;;;4.07;1.80;;;10.00;99.90;;;;;;5036128;28;20227;-45
2023/10/28 03:26:33;;;;;;;5.30;1.80;;;10.10;99.90;;;;;;5036846;28;20221;-45
2023/10/28 03:29:02;;;;;;;5.33;1.20;;;10.10;99.90;;;;;;5037302;28;20468;-45
2023/10/28 03:31:28;;;;;;;3.90;1.50;;;10.10;99.90;;;;;;5037342;28;20217;-45
2023/10/28 03:33:54;;;;;;;5.60;1.60;;;10.10;99.90;;;;;;5038470;28;20457;-45
2023/10/28 03:36:20;;;;;;;3.27;1.20;;;10.10;99.90;;;;;;5038214;28;20642;-45
2023/10/28 03:38:45;;;;;;;2.20;1.20;;;10.20;99.90;;;;;;5019915;28;20868;-45
2023/10/28 03:41:11;;;;;;;3.10;1.40;;;10.20;99.90;;;;;;5036659;28;20189;-45
2023/10/28 03:43:43;;;;;;;3.17;1.60;;;10.20;99.90;;;;;;5036480;28;20178;-45
2023/10/28 03:46:18;;;;;;;4.67;1.53;;;10.20;99.90;;;;;;5036224;28;20413;-45
2023/10/28 03:48:44;;;;;;;4.03;1.60;;;10.20;99.90;;;;;;5035845;28;20416;-45
2023/10/28 03:51:09;;;;;;;5.30;1.50;;;10.20;99.90;;;;;;5036052;28;20429;-45
2023/10/28 03:53:35;;;;;;;4.20;1.30;;;10.20;99.90;;;;;;5036991;28;20433;-45
2023/10/28 03:56:01;;;;;;;4.23;1.90;;;10.20;99.90;;;;;;5035887;28;20705;-45
2023/10/28 03:58:26;;;;;;;7.23;1.73;;;10.20;99.90;;;;;;5036543;28;20174;-43
2023/10/28 04:00:53;;;;;;;2.90;1.27;;;10.30;96.70;;;;;;5018933;28;20216;-45
2023/10/28 04:03:21;;;;;;;2.67;1.50;;;10.30;25.10;;;;;;5035359;28;20572;-45
2023/10/28 04:05:47;;;;;;;3.33;1.30;;;10.30;18.20;;;;;;5034228;28;20733;-45
2023/10/28 04:08:13;;;;;;;3.20;1.40;;;10.30;1.00;;;;;;5033760;28;20703;-45
2023/10/28 04:10:39;;;;;;;3.07;1.13;;;10.30;1.00;;;;;;5034007;28;20819;-45
2023/10/28 04:13:05;;;;;;;4.30;1.43;;;10.30;1.00;;;;;;5034717;28;20883;-45
2023/10/28 04:15:31;;;;;;;2.40;1.03;;;10.30;1.00;;;;;;5034708;28;20187;-45
2023/10/28 04:17:57;;;;;;;1.50;0.90;;;10.30;1.00;;;;;;5035854;28;20502;-44
2023/10/28 04:20:22;;;;;;;2.17;0.97;;;10.40;1.00;;;;;;5035959;28;20469;-45
2023/10/28 04:22:48;;;;;;;3.87;0.93;;;10.30;99.90;;;;;;5037103;28;20288;-44
2023/10/28 04:25:14;;;;;;;2.63;1.07;;;10.30;99.90;;;;;;5037081;28;20553;-45
2023/10/28 04:27:40;;;;;;;2.23;0.80;;;10.30;99.90;;;;;;5037239;28;20433;-45
2023/10/28 04:30:10;;;;;;;3.37;0.90;;;10.30;99.90;;;;;;5035824;28;20331;-45
2023/10/28 04:32:39;;;;;;;3.03;1.17;;;10.30;99.90;;;;;;5036427;28;20758;-45
2023/10/28 04:35:10;;;;;;;3.23;0.87;;;10.20;99.90;;;;;;5036443;28;20419;-45
2023/10/28 04:37:36;;;;;;;2.97;1.10;;;10.20;99.90;;;;;;5036053;28;20413;-45
2023/10/28 04:40:04;;;;;;;3.90;1.33;;;10.20;99.90;;;;;;5035619;28;20432;-45
2023/10/28 04:42:31;;;;;;;2.60;0.80;;;10.10;99.90;;;;;;5036724;28;20193;-45
2023/10/28 04:44:57;;;;;;;2.30;1.50;;;10.10;99.90;;;;;;5035330;28;20677;-45
2023/10/28 04:47:24;;;;;;;4.10;1.50;;;10.10;99.90;;;;;;5036633;28;20510;-45
2023/10/28 04:49:50;;;;;;;2.57;1.43;;;10.10;99.90;;;;;;5036784;28;20249;-45
2023/10/28 04:52:16;;;;;;;3.23;1.17;;;10.00;99.90;;;;;;5035971;28;20904;-45
2023/10/28 04:54:41;;;;;;;2.87;1.10;;;10.00;99.90;;;;;;5036892;28;20751;-45
2023/10/28 04:57:09;;;;;;;4.53;1.50;;;10.00;99.90;;;;;;5037224;28;20284;-45
2023/10/28 04:59:34;;;;;;;2.70;1.00;;;10.00;99.90;;;;;;5036965;28;20190;-45
2023/10/28 05:02:00;;;;;;;3.30;1.10;;;10.00;17.70;;;;;;5036528;28;20417;-45
2023/10/28 05:04:27;;;;;;;5.40;1.50;;;10.00;1.00;;;;;;5037612;28;20178;-45
2023/10/28 05:06:53;;;;;;;2.07;1.23;;;10.00;1.00;;;;;;5036698;28;20256;-45
2023/10/28 05:09:20;;;;;;;1.57;0.80;;;9.90;15.10;;;;;;5036398;28;20533;-45
2023/10/28 05:11:50;;;;;;;3.03;1.30;;;9.90;76.70;;;;;;5035946;28;20740;-45
2023/10/28 05:14:16;;;;;;;2.63;1.10;;;9.90;40.70;;;;;;5036562;28;20433;-45
2023/10/28 05:16:41;;;;;;;5.83;1.10;;;9.90;59.10;;;;;;5037220;28;20429;-45
2023/10/28 05:19:08;;;;;;;2.80;1.10;;;10.00;83.60;;;;;;5035496;28;20190;-45
2023/10/28 05:21:34;;;;;;;2.50;1.03;;;9.90;36.70;;;;;;5035508;28;20198;-45
2023/10/28 05:24:00;;;;;;;6.20;1.07;;;9.90;66.20;;;;;;5035919;28;20473;-45
2023/10/28 05:26:26;;;;;;;4.73;1.20;;;9.90;58.90;;;;;;5035825;28;20511;-45
2023/10/28 05:28:54;;;;;;;4.23;1.53;;;9.90;99.90;;;;;;5036017;28;20183;-47
2023/10/28 05:31:20;;;;;;;1.80;0.83;;;9.90;99.90;;;;;;5036248;28;20491;-45
2023/10/28 05:33:45;;;;;;;4.10;1.07;;;9.80;99.90;;;;;;5034465;28;20506;-45
2023/10/28 05:36:11;;;;;;;5.73;1.40;;;9.90;99.90;;;;;;5034627;28;20463;-45
2023/10/28 05:38:37;;;;;;;2.23;0.97;;;9.80;99.90;;;;;;5033511;28;20476;-44
2023/10/28 05:41:02;;;;;;;3.00;1.00;;;9.80;99.90;;;;;;5035597;28;20217;-45
2023/10/28 05:43:28;;;;;;;3.10;1.10;;;9.80;99.90;;;;;;5035906;28;20187;-45
2023/10/28 05:45:53;;;;;;;3.27;1.17;;;9.80;99.90;;;;;;5036833;28;20198;-44
2023/10/28 05:48:19;;;;;;;1.70;1.07;;;9.90;99.90;;;;;;5039188;28;20224;-45
2023/10/28 05:50:45;;;;;;;2.13;1.30;;;9.80;99.90;;;;;;5039581;28;20214;-45
2023/10/28 05:53:10;;;;;;;2.33;1.00;;;9.80;99.90;;;;;;5021433;28;20170;-45
2023/10/28 05:55:37;;;;;;;1.77;1.03;;;9.80;99.90;;;;;;5038453;28;20186;-47
2023/10/28 05:58:03;;;;;;;1.77;1.07;;;9.80;99.90;;;;;;5040120;28;20182;-45
2023/10/28 06:00:29;;;;;;;2.80;1.40;;;9.80;99.90;;;;;;5039577;28;20440;-45
2023/10/28 06:02:54;;;;;;;2.07;1.10;;;9.80;99.90;;;;;;5039324;28;20202;-45
2023/10/28 06:05:20;;;;;;;1.77;1.00;;;9.80;99.90;;;;;;5037745;28;20452;-45
2023/10/28 06:07:49;;;;;;;5.13;1.57;;;9.90;99.90;;;;;;5038717;28;20708;-45
2023/10/28 06:10:15;;;;;;;4.27;1.20;;;9.80;99.90;;;;;;5039487;28;20473;-45
2023/10/28 06:12:41;;;;;;;4.03;1.17;;;9.90;99.90;;;;;;5037556;28;20432;-45
2023/10/28 06:15:07;;;;;;;3.27;1.03;;;9.90;99.90;;;;;;5035805;28;20502;-45
2023/10/28 06:17:35;;;;;;;2.17;1.07;;;9.90;99.90;;;;;;5036707;28;20203;-45
2023/10/28 06:20:01;;;;;;;4.50;1.20;;;10.00;99.90;;;;;;5036635;28;20421;-45
2023/10/28 06:22:26;;;;;;;2.67;1.03;;;10.10;99.90;;;;;;5037024;28;20476;-45
2023/10/28 06:24:54;;;;;;;2.83;1.40;;;10.10;99.90;;;;;;5036316;28;20432;-45
2023/10/28 06:27:22;;;;;;;4.40;1.20;;;10.20;97.80;;;;;;5036998;28;20218;-45
2023/10/28 06:29:47;;;;;;;2.03;1.20;;;10.20;30.20;;;;;;5037319;28;20601;-45
2023/10/28 06:32:13;;;;;;;4.20;1.63;;;10.20;1.00;;;;;;5037415;28;20607;-45
2023/10/28 06:34:39;;;;;;;3.20;1.60;;;10.30;1.00;;;;;;5036600;28;20194;-45
2023/10/28 06:37:04;;;;;;;3.17;1.47;;;10.30;1.00;;;;;;5037475;28;20190;-45
2023/10/28 06:39:34;;;;;;;2.53;1.03;;;10.40;1.00;;;;;;5036468;28;20202;-45
2023/10/28 06:42:01;;;;;;;2.87;1.37;;;10.40;99.90;;;;;;5036776;28;20419;-44
2023/10/28 06:44:27;;;;;;;1.97;1.07;;;10.40;99.90;;;;;;5036627;28;20436;-45
2023/10/28 06:46:53;;;;;;;4.93;1.13;;;10.40;99.90;;;;;;5037332;28;20443;-45
2023/10/28 06:49:18;;;;;;;3.10;1.27;;;10.40;99.90;;;;;;5038333;28;20472;-44
2023/10/28 06:51:45;;;;;;;4.13;1.60;;;10.40;99.90;;;;;;5037141;28;20182;-45
2023/10/28 06:54:11;;;;;;;2.33;1.00;;;10.40;99.90;;;;;;5037655;28;20203;-45
2023/10/28 06:56:36;;;;;;;3.67;1.23;;;10.50;99.90;;;;;;5038179;28;20848;-45
2023/10/28 06:59:02;;;;;;;2.70;1.20;;;10.60;99.90;;;;;;5038173;28;20272;-45
2023/10/28 07:01:28;;;;;;;3.73;1.70;;;10.70;99.90;;;;;;5037447;28;20450;-45
2023/10/28 07:03:53;;;;;;;3.53;1.40;;;10.90;99.90;;;;;;5037473;28;20220;-45
2023/10/28 07:06:19;;;;;;;3.10;1.07;;;11.30;1.00;;;;;;5036188;28;20190;-45
2023/10/28 07:08:45;;;;;;;5.83;1.27;;;11.80;99.90;;;;;;5035297;28;20573;-45
2023/10/28 07:11:12;;;;;;;4.70;1.17;;;11.90;1.00;;;;;;5036490;28;20179;-45
2023/10/28 07:13:38;;;;;;;2.07;0.97;;;12.10;30.70;;;;;;5035809;28;20443;-46
2023/10/28 07:16:04;;;;;;;2.03;1.17;;;12.10;1.00;;;;;;5037110;28;20771;-45
2023/10/28 07:18:30;;;;;;;2.60;1.20;;;12.20;1.00;;;;;;5036543;28;20515;-45
2023/10/28 07:20:56;;;;;;;3.00;1.20;;;12.30;99.90;;;;;;5033823;28;20440;-46
2023/10/28 07:23:26;;;;;;;2.57;1.30;;;12.30;99.90;;;;;;5034080;28;20503;-45
2023/10/28 07:25:52;;;;;;;2.10;1.17;;;12.50;99.90;;;;;;5034987;28;20453;-44
2023/10/28 07:28:18;;;;;;;2.40;0.90;;;13.10;1.00;;;;;;5032866;28;20855;-45
2023/10/28 07:30:51;;;;;;;2.30;1.50;;;13.80;94.20;;;;;;5031467;28;20755;-44
2023/10/28 07:33:18;;;;;;;4.87;1.90;;;14.50;1.00;;;;;;5033699;28;20212;-44
2023/10/28 07:35:45;;;;;;;2.17;1.40;;;14.80;99.90;;;;;;5047832;28;20448;-44
2023/10/28 07:38:12;;;;;;;6.47;1.40;;;15.10;99.90;;;;;;5053185;28;20861;-45
2023/10/28 07:40:38;;;;;;;1.40;0.80;;;15.40;99.90;;;;;;5054836;28;20409;-45
2023/10/28 07:43:05;;;;;;;3.20;1.20;;;15.80;99.90;;;;;;5055997;28;20497;-44
2023/10/28 07:45:31;;;;;;;1.77;1.13;;;16.30;50.20;;;;;;5037508;28;20916;-45
2023/10/28 07:47:57;;;;;;;3.80;1.40;;;16.70;1.00;;;;;;5054389;28;20543;-44
2023/10/28 07:50:22;;;;;;;3.03;1.33;;;17.30;1.00;;;;;;5056363;28;20666;-44
2023/10/28 07:52:48;;;;;;;3.57;1.27;;;18.00;1.00;;;;;;5054066;28;20571;-45
2023/10/28 07:55:14;;;;;;;2.27;0.90;;;19.10;1.00;;;;;;5053482;28;20535;-46
2023/10/28 07:57:39;;;;;;;3.70;1.17;;;20.10;1.00;;;;;;5054226;28;20355;-44
2023/10/28 08:00:07;;;;;;;3.07;0.93;;;20.40;1.00;;;;;;5055544;28;20488;-45
2023/10/28 08:02:32;;;;;;;3.23;1.03;;;20.50;1.00;;;;;;5036877;28;20295;-45
2023/10/28 08:04:58;;;;;;;3.40;1.17;;;21.10;1.00;;;;;;5052226;28;20503;-45
2023/10/28 08:07:24;;;;;;;3.20;1.30;;;21.70;1.00;;;;;;5051154;28;20173;-45
2023/10/28 08:09:51;;;;;;;3.73;1.10;;;21.50;1.00;;;;;;5050924;28;20244;-45
2023/10/28 08:12:16;;;;;;;1.93;1.20;;;21.30;1.00;;;;;;5051893;28;20670;-45
2023/10/28 08:14:48;;;;;;;5.37;1.33;;;21.80;1.00;;;;;;5050517;28;21071;-48
2023/10/28 08:17:13;;;;;;;8.23;1.90;;;21.90;1.00;;;;;;5052223;28;20170;-45
2023/10/28 08:19:40;;;;;;;9.83;1.90;;;21.70;1.00;;;;;;5052347;28;20442;-46
2023/10/28 08:22:06;;;;;;;12.67;1.97;;;21.40;22.80;;;;;;5053061;28;20251;-47
2023/10/28 08:24:32;;;;;;;3.17;1.80;;;21.00;40.50;;;;;;5053414;28;20428;-43
2023/10/28 08:26:57;;;;;;;4.33;1.60;;;20.80;1.00;;;;;;5052102;28;20193;-44
2023/10/28 08:29:24;;;;;;;3.33;1.30;;;20.30;1.00;;;;;;5051659;28;20682;-45
2023/10/28 08:31:50;;;;;;;5.73;1.43;;;19.60;1.00;;;;;;5052402;28;20289;-46
2023/10/28 08:34:16;;;;;;;3.03;1.10;;;19.10;1.00;;;;;;5054145;28;20464;-45
2023/10/28 08:36:42;;;;;;;2.83;1.20;;;19.30;1.00;;;;;;5053132;28;20884;-45
2023/10/28 08:39:08;;;;;;;1.90;1.10;;;19.90;1.00;;;;;;5052377;28;20464;-45
2023/10/28 08:41:35;;;;;;;2.00;1.23;;;20.10;1.00;;;;;;5053016;28;20522;-44
2023/10/28 08:44:06;;;;;;;2.77;1.23;;;20.00;1.00;;;;;;5053566;28;20680;-45
2023/10/28 08:46:32;;;;;;;2.77;1.33;;;19.60;1.00;;;;;;5053664;28;20427;-45
2023/10/28 08:48:59;;;;;;;3.60;1.37;;;19.20;1.00;;;;;;5052567;28;20881;-45
2023/10/28 08:51:26;;;;;;;2.23;1.10;;;18.80;1.00;;;;;;5053376;28;20452;-45
2023/10/28 08:53:55;;;;;;;3.10;1.10;;;18.40;1.00;;;;;;5052599;28;20868;-45
2023/10/28 08:56:24;;;;;;;2.30;1.20;;;18.10;1.00;;;;;;5033890;28;20481;-45
2023/10/28 08:58:52;;;;;;;2.40;1.20;;;17.90;1.00;;;;;;5051467;28;20671;-45
2023/10/28 09:01:22;;;;;;;3.13;1.00;;;17.90;1.00;;;;;;5052028;28;20420;-45
2023/10/28 09:03:52;;;;;;;2.03;1.10;;;18.00;1.00;;;;;;5052053;28;20746;-45
2023/10/28 09:06:19;;;;;;;2.70;1.17;;;18.00;1.00;;;;;;5054636;28;20416;-45
2023/10/28 09:08:45;;;;;;;2.17;1.03;;;18.10;1.00;;;;;;5054962;28;20751;-45
2023/10/28 09:11:11;;;;;;;3.70;1.10;;;18.10;1.00;;;;;;5053855;28;20975;-45
2023/10/28 09:13:38;;;;;;;3.10;1.13;;;18.10;1.00;;;;;;5054056;28;20174;-45
2023/10/28 09:16:04;;;;;;;3.10;1.03;;;18.00;1.00;;;;;;5055370;28;20431;-45
2023/10/28 09:18:40;;;;;;;5.47;1.60;;;18.00;1.00;;;;;;5055825;28;20443;-45
2023/10/28 09:21:10;;;;;;;2.87;1.30;;;17.70;1.00;;;;;;5054190;28;20453;-45
2023/10/28 09:23:39;;;;;;;4.40;1.60;;;17.50;1.00;;;;;;5053448;28;20857;-45
2023/10/28 09:26:05;;;;;;;4.00;1.20;;;17.20;1.00;;;;;;5033824;28;20538;-45
2023/10/28 09:28:31;;;;;;;3.30;1.50;;;17.10;1.00;;;;;;5051456;28;20783;-45
2023/10/28 09:30:59;;;;;;;2.57;1.20;;;17.20;1.00;;;;;;5052346;28;20476;-45
2023/10/28 09:33:25;;;;;;;4.70;1.40;;;17.50;1.00;;;;;;5054462;28;20452;-44
2023/10/28 09:35:55;;;;;;;2.43;1.30;;;18.40;1.00;;;;;;5053247;28;20416;-45
2023/10/28 09:38:21;;;;;;;6.67;1.30;;;19.50;1.00;;;;;;5052396;28;20421;-45
2023/10/28 09:40:47;;;;;;;3.10;1.27;;;20.20;1.00;;;;;;5052233;28;20451;-47
2023/10/28 09:43:14;;;;;;;3.00;1.00;;;20.60;1.00;;;;;;5035591;28;20185;-45
2023/10/28 09:45:41;;;;;;;2.57;1.40;;;20.80;1.00;;;;;;5052287;28;20519;-45
2023/10/28 09:48:16;;;;;;;3.73;1.50;;;21.00;1.00;;;;;;5052248;28;20421;-45
2023/10/28 09:50:50;;;;;;;3.20;1.67;;;20.90;1.00;;;;;;5052577;28;20566;-45
2023/10/28 09:53:17;;;;;;;2.07;1.20;;;20.90;1.00;;;;;;5053432;28;20498;-45
2023/10/28 09:55:45;;;;;;;2.90;1.63;;;20.90;1.00;;;;;;5052947;28;21036;-45
2023/10/28 09:58:13;;;;;;;3.23;1.53;;;21.10;1.00;;;;;;5031257;28;20416;-45
2023/10/28 10:00:42;;;;;;;2.83;1.00;;;21.60;1.00;;;;;;5050287;28;20443;-44
2023/10/28 10:03:22;;;;;;;2.57;1.20;;;22.60;1.00;;;;;;5032125;28;20494;-45
2023/10/28 10:05:49;;;;;;;2.83;1.40;;;23.80;1.00;;;;;;5049268;28;20731;-45
2023/10/28 10:08:19;;;;;;;2.10;1.37;;;24.90;1.00;;;;;;5032073;28;20423;-45
2023/10/28 10:10:48;;;;;;;2.57;1.43;;;25.70;1.00;;;;;;5049722;28;20906;-45
2023/10/28 10:13:16;;;;;;;5.50;1.50;;;25.80;1.00;;;;;;5034347;28;20471;-45
2023/10/28 10:16:00;;;;;;;2.50;1.20;;;25.40;1.00;;;;;;5034745;28;20589;-45
2023/10/28 10:18:40;;;;;;;3.07;1.27;;;24.60;1.00;;;;;;5052099;28;20420;-45
2023/10/28 10:21:12;;;;;;;2.77;1.23;;;23.90;1.00;;;;;;5052256;28;20725;-45
2023/10/28 10:23:45;;;;;;;3.33;1.50;;;23.30;1.00;;;;;;5054039;28;20550;-45
2023/10/28 10:26:34;;;;;;;4.00;1.47;;;22.70;1.00;;;;;;5033691;28;20776;-45
2023/10/28 10:29:03;;;;;;;3.10;1.43;;;22.00;1.00;;;;;;5055360;28;20508;-45
2023/10/28 10:31:34;;;;;;;2.00;1.00;;;21.60;1.00;;;;;;5035841;28;20424;-45
2023/10/28 10:34:01;;;;;;;4.13;1.10;;;21.20;1.00;;;;;;5053971;28;20814;-45
2023/10/28 10:36:29;;;;;;;5.27;1.47;;;20.80;1.00;;;;;;5054866;28;20424;-45
2023/10/28 10:38:55;;;;;;;4.70;1.10;;;20.50;1.00;;;;;;5055318;28;20432;-45
2023/10/28 10:41:27;;;;;;;3.73;1.43;;;20.30;1.00;;;;;;5054540;28;20838;-45
2023/10/28 10:43:53;;;;;;;4.53;1.57;;;20.10;1.00;;;;;;5035420;28;20735;-45
2023/10/28 10:46:19;;;;;;;4.80;1.70;;;20.00;1.00;;;;;;5054569;28;20427;-45
2023/10/28 10:48:46;;;;;;;2.33;1.27;;;19.80;1.00;;;;;;5056573;28;20256;-45
2023/10/28 10:51:14;;;;;;;5.80;1.43;;;19.80;1.00;;;;;;5036646;28;20514;-46
2023/10/28 10:53:43;;;;;;;3.33;1.47;;;19.70;1.00;;;;;;5056731;28;20432;-45
2023/10/28 10:56:21;;;;;;;3.03;1.17;;;19.60;1.00;;;;;;5056614;28;20499;-45
2023/10/28 10:58:47;;;;;;;2.83;1.40;;;19.40;1.00;;;;;;5054644;28;20416;-45
2023/10/28 11:01:13;;;;;;;2.73;1.73;;;19.10;1.00;;;;;;5055676;28;20857;-45
2023/10/28 11:03:39;;;;;;;1.87;1.10;;;18.80;1.00;;;;;;5055467;28;20469;-45
2023/10/28 11:06:06;;;;;;;7.23;1.60;;;18.60;1.00;;;;;;5055479;28;20439;-45
2023/10/28 11:08:31;;;;;;;2.20;1.13;;;18.40;1.00;;;;;;5056805;28;20447;-45
2023/10/28 11:10:57;;;;;;;4.10;1.30;;;18.30;1.00;;;;;;5057329;28;20740;-45
2023/10/28 11:13:23;;;;;;;3.80;1.93;;;18.40;1.00;;;;;;5056929;28;20264;-45
2023/10/28 11:15:51;;;;;;;3.60;1.37;;;18.60;1.00;;;;;;5055559;28;20189;-45
2023/10/28 11:18:16;;;;;;;4.50;1.80;;;18.70;1.00;;;;;;5052806;28;20428;-46
2023/10/28 11:20:42;;;;;;;3.40;1.73;;;18.70;1.00;;;;;;5054135;28;20505;-45
2023/10/28 11:23:08;;;;;;;3.03;1.43;;;18.70;1.00;;;;;;5054533;28;20528;-45
2023/10/28 11:25:35;;;;;;;5.20;1.50;;;18.60;1.00;;;;;;5055104;28;20520;-45
2023/10/28 11:28:08;;;;;;;3.27;1.30;;;18.50;1.00;;;;;;5036124;28;20251;-45
2023/10/28 11:30:33;;;;;;;3.90;1.67;;;18.40;1.00;;;;;;5054087;28;20529;-45
2023/10/28 11:33:07;;;;;;;2.40;1.50;;;18.20;1.00;;;;;;5037477;28;20440;-45
2023/10/28 11:35:34;;;;;;;3.07;1.30;;;18.10;1.00;;;;;;5054699;28;20426;-45
2023/10/28 11:38:02;;;;;;;8.33;2.07;;;18.00;1.00;;;;;;5032896;28;20448;-46
2023/10/28 11:40:28;;;;;;;9.17;2.27;;;18.10;1.00;;;;;;5052127;28;20498;-46
2023/10/28 11:42:54;;;;;;;12.73;2.70;;;18.40;1.00;;;;;;5051795;28;20440;-47
2023/10/28 11:45:20;;;;;;;10.83;3.00;;;18.70;99.90;;;;;;5051489;28;20447;-47
2023/10/28 11:47:46;;;;;;;8.47;2.33;;;18.80;1.00;;;;;;5052013;28;20185;-45
2023/10/28 11:50:12;;;;;;;4.60;1.90;;;19.00;1.00;;;;;;5053184;28;20747;-45
2023/10/28 11:52:38;;;;;;;7.17;2.30;;;18.90;99.90;;;;;;5052375;28;20502;-45
2023/10/28 11:55:08;;;;;;;7.07;2.10;;;18.60;1.00;;;;;;5052260;28;20178;-45
2023/10/28 11:57:35;;;;;;;5.17;2.07;;;18.30;1.00;;;;;;5052526;28;20428;-45
2023/10/28 12:00:01;;;;;;;3.97;1.37;;;18.00;1.00;;;;;;5052714;28;20420;-45
2023/10/28 12:02:26;;;;;;;3.43;1.53;;;17.70;1.00;;;;;;5033587;28;20420;-45
2023/10/28 12:04:52;;;;;;;4.23;1.53;;;17.40;1.00;;;;;;5054334;28;20209;-45
2023/10/28 12:07:18;;;;;;;4.60;1.63;;;17.10;1.00;;;;;;5052858;28;20186;-45
2023/10/28 12:09:43;;;;;;;4.03;1.73;;;16.80;1.00;;;;;;5052869;28;20492;-45
2023/10/28 12:12:09;;;;;;;4.03;2.67;;;16.60;1.00;;;;;;5053007;28;20657;-45
2023/10/28 12:14:35;;;;;;;4.23;1.37;;;16.40;1.00;;;;;;5033465;28;20182;-45
2023/10/28 12:17:01;;;;;;;4.37;2.07;;;16.30;1.00;;;;;;5051490;28;20196;-45
2023/10/28 12:19:27;;;;;;;3.00;1.40;;;16.30;1.00;;;;;;5050904;28;20668;-45
2023/10/28 12:21:53;;;;;;;4.23;1.60;;;16.30;1.00;;;;;;5053090;28;20451;-45
2023/10/28 12:24:19;;;;;;;6.30;1.47;;;16.50;1.00;;;;;;5035410;28;20233;-45
2023/10/28 12:26:45;;;;;;;3.30;1.63;;;16.60;1.00;;;;;;5055358;28;20413;-45
2023/10/28 12:29:11;;;;;;;4.17;1.73;;;16.70;1.00;;;;;;5054694;28;20638;-45
2023/10/28 12:31:36;;;;;;;5.03;1.90;;;16.80;1.00;;;;;;5054162;28;20182;-45
2023/10/28 12:34:03;;;;;;;6.57;2.33;;;16.80;1.00;;;;;;5054647;28;20188;-46
2023/10/28 12:36:29;;;;;;;4.53;1.97;;;16.70;1.00;;;;;;5053822;28;20568;-45
2023/10/28 12:38:55;;;;;;;4.73;1.83;;;16.70;1.00;;;;;;5052959;28;20702;-45
2023/10/28 12:41:21;;;;;;;4.07;1.83;;;16.90;1.00;;;;;;5054060;28;20429;-45
2023/10/28 12:43:47;;;;;;;6.13;2.10;;;17.50;1.00;;;;;;5035720;28;20197;-45
2023/10/28 12:46:12;;;;;;;3.30;1.60;;;18.10;1.00;;;;;;5053670;28;20196;-45
2023/10/28 12:48:38;;;;;;;3.73;1.67;;;18.40;1.00;;;;;;5054166;28;20196;-45
2023/10/28 12:51:04;;;;;;;4.20;1.83;;;18.70;1.00;;;;;;5052899;28;20279;-45